Eizan Maru No.18 — JD3750 — position and weather

sailwx.info

Track history (hours):
 
Tides and Currents Weather Stations Pressure Air Temp Water Temp Dewpoint Dewpoint Depression Visibility Wind Speed Wind Dir Waves Ship Positions

Eizan Maru No.18

Last reported at 2017-Oct-19 01:25 UTC. Time now 2017-Oct-19 08:58 UTC.
Position N 35°32' E 139°55'.

Length 104 m; draft 5.1 m.

Type: Tanker. MMSI: 431005734.

Date/timePositionNaut miles runAvg speedWind from/ knotsBaromVisibWave heightAir tempDewpointWater temp
2017-Oct-19 01:25N 35°32' E 139°55'0 0.1
2017-Oct-19 00:49N 35°32' E 139°55'0 0.0
2017-Oct-19 00:25N 35°32' E 139°55'0 0.0
2017-Oct-18 23:58N 35°32' E 139°55'0 0.0
2017-Oct-18 23:26N 35°32' E 139°55'0 0.0
2017-Oct-18 22:58N 35°32' E 139°55'0 0.0
2017-Oct-18 22:25N 35°32' E 139°55'0 0.0
2017-Oct-18 21:43N 35°32' E 139°55'0 0.0
2017-Oct-18 21:23N 35°32' E 139°55'0 0.0
2017-Oct-18 20:56N 35°32' E 139°55'0 0.0
2017-Oct-18 20:29N 35°32' E 139°55'0 0.0
2017-Oct-18 19:52N 35°32' E 139°55'0 0.0
2017-Oct-18 19:26N 35°32' E 139°55'0 0.0
2017-Oct-18 18:52N 35°32' E 139°55'0 0.0
2017-Oct-18 18:25N 35°32' E 139°55'0 0.0
2017-Oct-18 17:55N 35°32' E 139°55'0 0.0
2017-Oct-18 17:29N 35°32' E 139°55'0 0.0
2017-Oct-18 16:59N 35°32' E 139°55'0 0.0
2017-Oct-18 15:59N 35°32' E 139°55'0 0.0
2017-Oct-18 15:28N 35°32' E 139°55'0 0.0
2017-Oct-18 14:56N 35°32' E 139°55'0 0.0
2017-Oct-18 13:59N 35°32' E 139°55'0 0.0
2017-Oct-18 12:26N 35°32' E 139°55'0 0.0
2017-Oct-18 08:26N 35°32' E 139°55'0 0.1
2017-Oct-18 07:59N 35°32' E 139°55'5 9.8
2017-Oct-18 07:29N 35°30' E 140°01'4 0.9
2017-Oct-18 02:54N 35°32' E 139°56'1 1.5
2017-Oct-18 02:11N 35°32' E 139°55'0 0.0
2017-Oct-17 18:06N 35°32' E 139°55'0 0.4
2017-Oct-17 18:00N 35°32' E 139°55'4 8.5
2017-Oct-17 17:30N 35°29' E 139°52'713.4
2017-Oct-17 17:00N 35°24' E 139°46'612.2
2017-Oct-17 16:30N 35°18' E 139°44'611.8
2017-Oct-17 16:01N 35°13' E 139°47'713.8
2017-Oct-17 15:30N 35°06' E 139°45'713.7
2017-Oct-17 15:00N 34°59' E 139°42'510.9
2017-Oct-17 14:30N 34°54' E 139°45'1212.0
2017-Oct-17 13:29N 34°53' E 139°60'  
Track history (hours):
 
Tides and Currents Weather Stations Pressure Air Temp Water Temp Dewpoint Dewpoint Depression Visibility Wind Speed Wind Dir Waves Ship Positions

Eizan Maru No.18

Last reported at 2017-Oct-19 01:25 UTC. Time now 2017-Oct-19 08:58 UTC.
Position N 35°32' E 139°55'.

Length 104 m; draft 5.1 m.

Type: Tanker. MMSI: 431005734.

Date/timePositionNaut miles runAvg speedWind from/ knotsBaromVisibWave heightAir tempDewpointWater temp
2017-Oct-19 01:25N 35°32' E 139°55'0 0.1
2017-Oct-19 00:49N 35°32' E 139°55'0 0.0
2017-Oct-19 00:25N 35°32' E 139°55'0 0.0
2017-Oct-18 23:58N 35°32' E 139°55'0 0.0
2017-Oct-18 23:26N 35°32' E 139°55'0 0.0
2017-Oct-18 22:58N 35°32' E 139°55'0 0.0
2017-Oct-18 22:25N 35°32' E 139°55'0 0.0
2017-Oct-18 21:43N 35°32' E 139°55'0 0.0
2017-Oct-18 21:23N 35°32' E 139°55'0 0.0
2017-Oct-18 20:56N 35°32' E 139°55'0 0.0
2017-Oct-18 20:29N 35°32' E 139°55'0 0.0
2017-Oct-18 19:52N 35°32' E 139°55'0 0.0
2017-Oct-18 19:26N 35°32' E 139°55'0 0.0
2017-Oct-18 18:52N 35°32' E 139°55'0 0.0
2017-Oct-18 18:25N 35°32' E 139°55'0 0.0
2017-Oct-18 17:55N 35°32' E 139°55'0 0.0
2017-Oct-18 17:29N 35°32' E 139°55'0 0.0
2017-Oct-18 16:59N 35°32' E 139°55'0 0.0
2017-Oct-18 15:59N 35°32' E 139°55'0 0.0
2017-Oct-18 15:28N 35°32' E 139°55'0 0.0
2017-Oct-18 14:56N 35°32' E 139°55'0 0.0
2017-Oct-18 13:59N 35°32' E 139°55'0 0.0
2017-Oct-18 12:26N 35°32' E 139°55'0 0.0
2017-Oct-18 08:26N 35°32' E 139°55'0 0.1
2017-Oct-18 07:59N 35°32' E 139°55'5 9.8
2017-Oct-18 07:29N 35°30' E 140°01'4 0.9
2017-Oct-18 02:54N 35°32' E 139°56'1 1.5
2017-Oct-18 02:11N 35°32' E 139°55'0 0.0
2017-Oct-17 18:06N 35°32' E 139°55'0 0.4
2017-Oct-17 18:00N 35°32' E 139°55'4 8.5
2017-Oct-17 17:30N 35°29' E 139°52'713.4
2017-Oct-17 17:00N 35°24' E 139°46'612.2
2017-Oct-17 16:30N 35°18' E 139°44'611.8
2017-Oct-17 16:01N 35°13' E 139°47'713.8
2017-Oct-17 15:30N 35°06' E 139°45'713.7
2017-Oct-17 15:00N 34°59' E 139°42'510.9
2017-Oct-17 14:30N 34°54' E 139°45'1212.0
2017-Oct-17 13:29N 34°53' E 139°60'  

Dump ship's entire track history